This is the latest recevied weather packets stored in our database for station/object S54A-10. If no packets are shown the sender has not sent any weather packets the latest 10 day(s).
| Time | Temp. | Humidity | Pressure | Rain* | Wind** | Luminosity | Snow |
|---|---|---|---|---|---|---|---|
| 1777923938 | 20° C | 38% | 1018 hPa | - | - | - | - |
| 1777923038 | 20.56° C | 38% | 1017.8 hPa | - | - | - | - |
| 1777922138 | 20.56° C | 37% | 1017.8 hPa | - | - | - | - |
| 1777921237 | 20.56° C | 36% | 1017.6 hPa | - | - | - | - |
| 1777920337 | 21.11° C | 36% | 1017.4 hPa | - | - | - | - |
| 1777919437 | 21.11° C | 36% | 1017.3 hPa | - | - | - | - |
| 1777918537 | 21.67° C | 35% | 1017.2 hPa | - | - | - | - |
| 1777917637 | 22.22° C | 35% | 1017.2 hPa | - | - | - | - |
| 1777916737 | 22.78° C | 34% | 1017 hPa | - | - | - | - |
| 1777915837 | 23.89° C | 33% | 1016.9 hPa | - | - | - | - |
| 1777914937 | 25° C | 32% | 1016.9 hPa | - | - | - | - |
| 1777914037 | 26.11° C | 31% | 1016.7 hPa | - | - | - | - |
| 1777913137 | 26.11° C | 31% | 1016.6 hPa | - | - | - | - |
| 1777912237 | 25.56° C | 32% | 1016.5 hPa | - | - | - | - |
| 1777911337 | 24.44° C | 31% | 1016.8 hPa | - | - | - | - |
| 1777910436 | 25° C | 30% | 1016.8 hPa | - | - | - | - |
| 1777909536 | 26.11° C | 30% | 1016.8 hPa | - | - | - | - |
| 1777908636 | 28.33° C | 27% | 1016.8 hPa | - | - | - | - |
| 1777907736 | 26.67° C | 30% | 1016.9 hPa | - | - | - | - |
| 1777906836 | 26.67° C | 28% | 1017.1 hPa | - | - | - | - |
| 1777905936 | 28.33° C | 29% | 1016.9 hPa | - | - | - | - |
| 1777905036 | 27.78° C | 29% | 1017 hPa | - | - | - | - |
| 1777904136 | 27.22° C | 28% | 1017.2 hPa | - | - | - | - |
| 1777903236 | 29.44° C | 27% | 1017.3 hPa | - | - | - | - |
| 1777902336 | 28.89° C | 28% | 1017.4 hPa | - | - | - | - |
* Rain since midnight (hover to see other rain measurements)
** Current wind speed in m/s (hover to see current wind gust speed)